sensor_id;sensor_type;location;lat;lon;timestamp;pressure;altitude;pressure_sealevel;temperature;humidity
77323;BME280;66384;51.052;9.850;2023-05-10T00:00:30;97755.92;;;16.02;55.45
77323;BME280;66384;51.052;9.850;2023-05-10T00:02:59;97758.19;;;16.01;55.77
77323;BME280;66384;51.052;9.850;2023-05-10T00:05:29;97756.11;;;16.00;57.01
77323;BME280;66384;51.052;9.850;2023-05-10T00:07:58;97753.52;;;15.99;58.22
77323;BME280;66384;51.052;9.850;2023-05-10T00:10:27;97751.11;;;15.96;58.94
77323;BME280;66384;51.052;9.850;2023-05-10T00:12:56;97745.96;;;15.92;59.55
77323;BME280;66384;51.052;9.850;2023-05-10T00:15:26;97746.51;;;15.90;60.12
77323;BME280;66384;51.052;9.850;2023-05-10T00:17:55;97746.18;;;15.88;60.76
77323;BME280;66384;51.052;9.850;2023-05-10T00:20:24;97745.16;;;15.86;61.52
77323;BME280;66384;51.052;9.850;2023-05-10T00:22:53;97741.55;;;15.83;62.14
77323;BME280;66384;51.052;9.850;2023-05-10T00:25:23;97738.62;;;15.81;62.25
77323;BME280;66384;51.052;9.850;2023-05-10T00:27:52;97738.47;;;15.78;63.31
77323;BME280;66384;51.052;9.850;2023-05-10T00:30:21;97738.15;;;15.76;63.47
77323;BME280;66384;51.052;9.850;2023-05-10T00:32:51;97739.73;;;15.74;63.74
77323;BME280;66384;51.052;9.850;2023-05-10T00:35:20;97738.86;;;15.74;63.80
77323;BME280;66384;51.052;9.850;2023-05-10T00:37:50;97739.36;;;15.75;64.32
77323;BME280;66384;51.052;9.850;2023-05-10T00:40:19;97739.05;;;15.74;64.35
77323;BME280;66384;51.052;9.850;2023-05-10T00:42:48;97737.46;;;15.75;64.56
77323;BME280;66384;51.052;9.850;2023-05-10T00:45:17;97740.42;;;15.75;64.92
77323;BME280;66384;51.052;9.850;2023-05-10T00:47:47;97740.24;;;15.75;65.06
77323;BME280;66384;51.052;9.850;2023-05-10T00:50:17;97741.44;;;15.76;65.10
77323;BME280;66384;51.052;9.850;2023-05-10T00:52:46;97737.80;;;15.76;65.11
77323;BME280;66384;51.052;9.850;2023-05-10T00:55:15;97738.48;;;15.77;65.20
77323;BME280;66384;51.052;9.850;2023-05-10T00:57:45;97735.00;;;15.79;65.47
77323;BME280;66384;51.052;9.850;2023-05-10T01:00:15;97735.71;;;15.78;65.59
77323;BME280;66384;51.052;9.850;2023-05-10T01:02:46;97733.66;;;15.74;65.96
77323;BME280;66384;51.052;9.850;2023-05-10T01:05:15;97732.48;;;15.72;65.96
77323;BME280;66384;51.052;9.850;2023-05-10T01:07:45;97732.12;;;15.72;66.13
77323;BME280;66384;51.052;9.850;2023-05-10T01:10:15;97729.00;;;15.72;66.45
77323;BME280;66384;51.052;9.850;2023-05-10T01:12:45;97725.20;;;15.70;66.48
77323;BME280;66384;51.052;9.850;2023-05-10T01:15:16;97724.17;;;15.68;66.67
77323;BME280;66384;51.052;9.850;2023-05-10T01:17:47;97722.27;;;15.66;66.98
77323;BME280;66384;51.052;9.850;2023-05-10T01:20:17;97721.10;;;15.62;67.04
77323;BME280;66384;51.052;9.850;2023-05-10T01:23:08;97720.42;;;15.60;67.25
77323;BME280;66384;51.052;9.850;2023-05-10T01:26:11;97724.77;;;15.58;67.25
77323;BME280;66384;51.052;9.850;2023-05-10T01:29:02;97723.91;;;15.59;67.67
77323;BME280;66384;51.052;9.850;2023-05-10T01:31:59;97725.98;;;15.60;67.79
77323;BME280;66384;51.052;9.850;2023-05-10T01:34:40;97725.61;;;15.62;67.93
77323;BME280;66384;51.052;9.850;2023-05-10T01:37:15;97723.87;;;15.62;67.90
77323;BME280;66384;51.052;9.850;2023-05-10T01:39:49;97722.11;;;15.64;67.91
77323;BME280;66384;51.052;9.850;2023-05-10T01:42:28;97723.49;;;15.64;68.08
77323;BME280;66384;51.052;9.850;2023-05-10T01:45:12;97724.53;;;15.65;68.09
77323;BME280;66384;51.052;9.850;2023-05-10T01:47:44;97719.84;;;15.66;68.14
77323;BME280;66384;51.052;9.850;2023-05-10T01:50:18;97723.83;;;15.66;68.29
77323;BME280;66384;51.052;9.850;2023-05-10T01:52:53;97718.47;;;15.67;68.40
77323;BME280;66384;51.052;9.850;2023-05-10T01:55:25;97717.25;;;15.68;68.68
77323;BME280;66384;51.052;9.850;2023-05-10T01:58:01;97724.00;;;15.67;68.83
77323;BME280;66384;51.052;9.850;2023-05-10T02:00:32;97722.11;;;15.65;68.89
77323;BME280;66384;51.052;9.850;2023-05-10T02:03:06;97723.34;;;15.63;68.92
77323;BME280;66384;51.052;9.850;2023-05-10T02:05:37;97730.29;;;15.62;69.07
77323;BME280;66384;51.052;9.850;2023-05-10T02:08:08;97730.27;;;15.61;69.16
77323;BME280;66384;51.052;9.850;2023-05-10T02:10:38;97728.58;;;15.59;69.35
77323;BME280;66384;51.052;9.850;2023-05-10T02:13:09;97725.83;;;15.55;69.33
77323;BME280;66384;51.052;9.850;2023-05-10T02:15:40;97727.42;;;15.52;69.53
77323;BME280;66384;51.052;9.850;2023-05-10T02:18:10;97727.09;;;15.50;69.59
77323;BME280;66384;51.052;9.850;2023-05-10T02:20:40;97731.45;;;15.46;69.69
77323;BME280;66384;51.052;9.850;2023-05-10T02:23:11;97731.64;;;15.45;69.82
77323;BME280;66384;51.052;9.850;2023-05-10T02:25:41;97729.76;;;15.42;69.78
77323;BME280;66384;51.052;9.850;2023-05-10T02:28:13;97730.15;;;15.39;69.76
77323;BME280;66384;51.052;9.850;2023-05-10T02:30:44;97731.55;;;15.36;69.79
77323;BME280;66384;51.052;9.850;2023-05-10T02:33:14;97728.80;;;15.34;69.90
77323;BME280;66384;51.052;9.850;2023-05-10T02:35:44;97726.21;;;15.33;69.95
77323;BME280;66384;51.052;9.850;2023-05-10T02:38:14;97730.38;;;15.32;69.90
77323;BME280;66384;51.052;9.850;2023-05-10T02:40:45;97727.43;;;15.32;69.90
77323;BME280;66384;51.052;9.850;2023-05-10T02:43:17;97730.20;;;15.32;70.07
77323;BME280;66384;51.052;9.850;2023-05-10T02:45:48;97729.67;;;15.32;70.03
77323;BME280;66384;51.052;9.850;2023-05-10T02:48:18;97729.84;;;15.34;70.06
77323;BME280;66384;51.052;9.850;2023-05-10T02:50:48;97729.48;;;15.34;70.17
77323;BME280;66384;51.052;9.850;2023-05-10T02:53:32;97730.20;;;15.33;70.28
77323;BME280;66384;51.052;9.850;2023-05-10T02:56:08;97730.52;;;15.34;70.42
77323;BME280;66384;51.052;9.850;2023-05-10T02:58:41;97725.17;;;15.33;70.63
77323;BME280;66384;51.052;9.850;2023-05-10T03:01:10;97724.84;;;15.32;70.68
77323;BME280;66384;51.052;9.850;2023-05-10T03:03:39;97721.55;;;15.31;70.64
77323;BME280;66384;51.052;9.850;2023-05-10T03:06:09;97718.10;;;15.29;70.55
77323;BME280;66384;51.052;9.850;2023-05-10T03:08:38;97713.79;;;15.26;70.31
77323;BME280;66384;51.052;9.850;2023-05-10T03:11:21;97715.04;;;15.23;70.33
77323;BME280;66384;51.052;9.850;2023-05-10T03:14:09;97710.23;;;15.17;70.43
77323;BME280;66384;51.052;9.850;2023-05-10T03:16:42;97710.25;;;15.13;70.50
77323;BME280;66384;51.052;9.850;2023-05-10T03:19:22;97711.85;;;15.10;70.57
77323;BME280;66384;51.052;9.850;2023-05-10T03:21:54;97709.11;;;15.05;70.75
77323;BME280;66384;51.052;9.850;2023-05-10T03:24:27;97711.55;;;15.02;70.72
77323;BME280;66384;51.052;9.850;2023-05-10T03:26:58;97716.75;;;15.01;70.83
77323;BME280;66384;51.052;9.850;2023-05-10T03:29:30;97722.48;;;15.01;70.98
77323;BME280;66384;51.052;9.850;2023-05-10T03:32:00;97720.56;;;15.00;71.05
77323;BME280;66384;51.052;9.850;2023-05-10T03:34:31;97720.73;;;15.02;71.11
77323;BME280;66384;51.052;9.850;2023-05-10T03:37:00;97717.10;;;15.01;71.14
77323;BME280;66384;51.052;9.850;2023-05-10T03:39:29;97722.15;;;14.98;71.24
77323;BME280;66384;51.052;9.850;2023-05-10T03:41:58;97724.62;;;14.91;71.23
77323;BME280;66384;51.052;9.850;2023-05-10T03:44:27;97728.29;;;14.85;71.17
77323;BME280;66384;51.052;9.850;2023-05-10T03:46:57;97729.71;;;14.79;71.36
77323;BME280;66384;51.052;9.850;2023-05-10T03:49:26;97731.47;;;14.74;71.36
77323;BME280;66384;51.052;9.850;2023-05-10T03:51:55;97737.38;;;14.71;71.56
77323;BME280;66384;51.052;9.850;2023-05-10T03:54:24;97737.23;;;14.68;71.67
77323;BME280;66384;51.052;9.850;2023-05-10T03:56:54;97738.29;;;14.64;71.98
77323;BME280;66384;51.052;9.850;2023-05-10T03:59:23;97742.48;;;14.56;71.95
77323;BME280;66384;51.052;9.850;2023-05-10T04:01:52;97746.63;;;14.49;72.09
77323;BME280;66384;51.052;9.850;2023-05-10T04:04:21;97746.29;;;14.47;72.23
77323;BME280;66384;51.052;9.850;2023-05-10T04:06:51;97751.31;;;14.47;72.24
77323;BME280;66384;51.052;9.850;2023-05-10T04:09:20;97750.27;;;14.45;72.22
77323;BME280;66384;51.052;9.850;2023-05-10T04:11:49;97748.39;;;14.43;72.29
77323;BME280;66384;51.052;9.850;2023-05-10T04:14:19;97751.00;;;14.40;72.18
77323;BME280;66384;51.052;9.850;2023-05-10T04:16:48;97753.27;;;14.38;72.18
77323;BME280;66384;51.052;9.850;2023-05-10T04:19:17;97754.81;;;14.36;72.30
77323;BME280;66384;51.052;9.850;2023-05-10T04:21:46;97759.52;;;14.33;72.28
77323;BME280;66384;51.052;9.850;2023-05-10T04:24:15;97762.80;;;14.30;72.51
77323;BME280;66384;51.052;9.850;2023-05-10T04:26:44;97762.11;;;14.29;72.51
77323;BME280;66384;51.052;9.850;2023-05-10T04:29:14;97767.99;;;14.27;72.47
77323;BME280;66384;51.052;9.850;2023-05-10T04:31:43;97765.40;;;14.27;72.53
77323;BME280;66384;51.052;9.850;2023-05-10T04:34:12;97763.87;;;14.24;72.65
77323;BME280;66384;51.052;9.850;2023-05-10T04:36:41;97766.98;;;14.22;72.73
77323;BME280;66384;51.052;9.850;2023-05-10T04:39:11;97765.59;;;14.21;72.81
77323;BME280;66384;51.052;9.850;2023-05-10T04:41:41;97768.19;;;14.21;72.86
77323;BME280;66384;51.052;9.850;2023-05-10T04:44:10;97766.64;;;14.22;72.71
77323;BME280;66384;51.052;9.850;2023-05-10T04:46:40;97770.79;;;14.23;72.82
77323;BME280;66384;51.052;9.850;2023-05-10T04:49:09;97776.48;;;14.23;72.69
77323;BME280;66384;51.052;9.850;2023-05-10T04:51:38;97777.88;;;14.24;72.78
77323;BME280;66384;51.052;9.850;2023-05-10T04:54:07;97785.48;;;14.25;72.81
77323;BME280;66384;51.052;9.850;2023-05-10T04:56:36;97789.46;;;14.25;72.83
77323;BME280;66384;51.052;9.850;2023-05-10T04:59:06;97788.59;;;14.23;72.79
77323;BME280;66384;51.052;9.850;2023-05-10T05:01:35;97791.04;;;14.20;72.84
77323;BME280;66384;51.052;9.850;2023-05-10T05:04:05;97794.83;;;14.21;72.93
77323;BME280;66384;51.052;9.850;2023-05-10T05:06:34;97800.36;;;14.25;72.97
77323;BME280;66384;51.052;9.850;2023-05-10T05:09:04;97803.28;;;14.27;72.74
77323;BME280;66384;51.052;9.850;2023-05-10T05:11:33;97807.95;;;14.31;72.61
77323;BME280;66384;51.052;9.850;2023-05-10T05:14:02;97807.42;;;14.33;72.54
77323;BME280;66384;51.052;9.850;2023-05-10T05:16:32;97812.95;;;14.36;72.65
77323;BME280;66384;51.052;9.850;2023-05-10T05:19:02;97814.83;;;14.37;72.42
77323;BME280;66384;51.052;9.850;2023-05-10T05:21:31;97821.59;;;14.39;72.27
77323;BME280;66384;51.052;9.850;2023-05-10T05:24:01;97829.38;;;14.39;72.33
77323;BME280;66384;51.052;9.850;2023-05-10T05:26:30;97830.07;;;14.36;72.39
77323;BME280;66384;51.052;9.850;2023-05-10T05:28:59;97832.34;;;14.32;72.26
77323;BME280;66384;51.052;9.850;2023-05-10T05:31:28;97837.02;;;14.27;72.18
77323;BME280;66384;51.052;9.850;2023-05-10T05:33:58;97844.46;;;14.23;72.16
77323;BME280;66384;51.052;9.850;2023-05-10T05:36:27;97840.84;;;14.21;72.33
77323;BME280;66384;51.052;9.850;2023-05-10T05:38:56;97842.23;;;14.20;72.25
77323;BME280;66384;51.052;9.850;2023-05-10T05:41:26;97843.09;;;14.15;72.17
77323;BME280;66384;51.052;9.850;2023-05-10T05:43:55;97845.34;;;14.15;72.38
77323;BME280;66384;51.052;9.850;2023-05-10T05:46:24;97846.55;;;14.16;72.55
77323;BME280;66384;51.052;9.850;2023-05-10T05:48:53;97845.85;;;14.14;72.50
77323;BME280;66384;51.052;9.850;2023-05-10T05:51:23;97851.55;;;14.14;72.56
77323;BME280;66384;51.052;9.850;2023-05-10T05:53:52;97852.42;;;14.15;72.48
77323;BME280;66384;51.052;9.850;2023-05-10T05:56:21;97856.76;;;14.17;72.32
77323;BME280;66384;51.052;9.850;2023-05-10T05:58:52;97859.16;;;14.16;72.31
77323;BME280;66384;51.052;9.850;2023-05-10T06:01:21;97862.45;;;14.16;72.30
77323;BME280;66384;51.052;9.850;2023-05-10T06:03:50;97866.61;;;14.15;72.43
77323;BME280;66384;51.052;9.850;2023-05-10T06:06:20;97872.65;;;14.13;72.47
77323;BME280;66384;51.052;9.850;2023-05-10T06:08:49;97876.13;;;14.09;72.28
77323;BME280;66384;51.052;9.850;2023-05-10T06:11:19;97876.81;;;14.05;72.31
77323;BME280;66384;51.052;9.850;2023-05-10T06:13:48;97882.36;;;14.01;72.31
77323;BME280;66384;51.052;9.850;2023-05-10T06:16:18;97883.92;;;13.97;72.48
77323;BME280;66384;51.052;9.850;2023-05-10T06:18:47;97890.13;;;13.95;72.58
77323;BME280;66384;51.052;9.850;2023-05-10T06:21:16;97892.38;;;13.96;72.71
77323;BME280;66384;51.052;9.850;2023-05-10T06:23:45;97898.44;;;13.95;72.63
77323;BME280;66384;51.052;9.850;2023-05-10T06:26:15;97899.30;;;13.94;72.56
77323;BME280;66384;51.052;9.850;2023-05-10T06:28:44;97902.42;;;13.90;72.43
77323;BME280;66384;51.052;9.850;2023-05-10T06:31:13;97904.14;;;13.88;72.50
77323;BME280;66384;51.052;9.850;2023-05-10T06:33:42;97901.55;;;13.92;72.71
77323;BME280;66384;51.052;9.850;2023-05-10T06:36:11;97903.29;;;13.97;72.63
77323;BME280;66384;51.052;9.850;2023-05-10T06:38:41;97907.08;;;14.03;72.50
77323;BME280;66384;51.052;9.850;2023-05-10T06:41:10;97910.88;;;14.08;72.39
77323;BME280;66384;51.052;9.850;2023-05-10T06:43:39;97913.13;;;14.15;72.41
77323;BME280;66384;51.052;9.850;2023-05-10T06:46:09;97912.26;;;14.20;72.50
77323;BME280;66384;51.052;9.850;2023-05-10T06:48:38;97911.21;;;14.27;72.28
77323;BME280;66384;51.052;9.850;2023-05-10T06:51:07;97914.49;;;14.34;71.88
77323;BME280;66384;51.052;9.850;2023-05-10T06:53:37;97918.11;;;14.39;71.74
77323;BME280;66384;51.052;9.850;2023-05-10T06:56:06;97917.59;;;14.43;71.62
77323;BME280;66384;51.052;9.850;2023-05-10T06:58:35;97922.42;;;14.48;71.57
77323;BME280;66384;51.052;9.850;2023-05-10T07:01:06;97919.31;;;14.49;71.49
77323;BME280;66384;51.052;9.850;2023-05-10T07:03:36;97921.73;;;14.52;71.58
77323;BME280;66384;51.052;9.850;2023-05-10T07:06:06;97926.09;;;14.55;71.46
77323;BME280;66384;51.052;9.850;2023-05-10T07:08:35;97929.36;;;14.58;71.23
77323;BME280;66384;51.052;9.850;2023-05-10T07:11:05;97929.36;;;14.62;71.13
77323;BME280;66384;51.052;9.850;2023-05-10T07:13:35;97931.92;;;14.68;71.17
77323;BME280;66384;51.052;9.850;2023-05-10T07:16:07;97928.27;;;14.76;70.89
77323;BME280;66384;51.052;9.850;2023-05-10T07:18:36;97931.02;;;14.84;70.40
77323;BME280;66384;51.052;9.850;2023-05-10T07:21:06;97929.61;;;14.91;70.50
77323;BME280;66384;51.052;9.850;2023-05-10T07:23:35;97930.96;;;15.00;70.40
77323;BME280;66384;51.052;9.850;2023-05-10T07:26:05;97933.70;;;15.10;70.48
77323;BME280;66384;51.052;9.850;2023-05-10T07:28:34;97937.98;;;15.20;70.01
77323;BME280;66384;51.052;9.850;2023-05-10T07:31:05;97933.96;;;15.31;69.64
77323;BME280;66384;51.052;9.850;2023-05-10T07:33:34;97937.19;;;15.39;69.27
77323;BME280;66384;51.052;9.850;2023-05-10T07:36:04;97935.09;;;15.46;69.03
77323;BME280;66384;51.052;9.850;2023-05-10T07:38:33;97942.64;;;15.58;69.17
77323;BME280;66384;51.052;9.850;2023-05-10T07:41:02;97942.77;;;15.70;69.10
77323;BME280;66384;51.052;9.850;2023-05-10T07:43:31;97945.47;;;15.83;68.50
77323;BME280;66384;51.052;9.850;2023-05-10T07:46:00;97945.94;;;15.91;68.03
77323;BME280;66384;51.052;9.850;2023-05-10T07:48:30;97949.54;;;15.95;67.90
77323;BME280;66384;51.052;9.850;2023-05-10T07:50:59;97955.26;;;15.96;67.60
77323;BME280;66384;51.052;9.850;2023-05-10T07:53:28;97956.63;;;15.98;67.74
77323;BME280;66384;51.052;9.850;2023-05-10T07:56:18;97961.48;;;15.97;67.27
77323;BME280;66384;51.052;9.850;2023-05-10T07:58:48;97965.14;;;15.95;67.27
77323;BME280;66384;51.052;9.850;2023-05-10T08:01:18;97969.83;;;15.96;67.04
77323;BME280;66384;51.052;9.850;2023-05-10T08:03:47;97968.94;;;15.98;66.46
77323;BME280;66384;51.052;9.850;2023-05-10T08:06:18;97971.70;;;16.00;66.34
77323;BME280;66384;51.052;9.850;2023-05-10T08:08:49;97973.23;;;16.03;66.28
77323;BME280;66384;51.052;9.850;2023-05-10T08:11:18;97971.33;;;16.03;66.34
77323;BME280;66384;51.052;9.850;2023-05-10T08:13:49;97973.23;;;16.04;66.39
77323;BME280;66384;51.052;9.850;2023-05-10T08:16:19;97972.86;;;16.09;66.24
77323;BME280;66384;51.052;9.850;2023-05-10T08:18:48;97971.77;;;16.14;65.23
77323;BME280;66384;51.052;9.850;2023-05-10T08:21:18;97973.83;;;16.18;64.71
77323;BME280;66384;51.052;9.850;2023-05-10T08:23:47;97973.09;;;16.23;64.86
77323;BME280;66384;51.052;9.850;2023-05-10T08:26:17;97975.11;;;16.29;65.19
77323;BME280;66384;51.052;9.850;2023-05-10T08:28:46;97978.07;;;16.29;64.75
77323;BME280;66384;51.052;9.850;2023-05-10T08:31:16;97982.41;;;16.28;64.79
77323;BME280;66384;51.052;9.850;2023-05-10T08:33:45;97983.64;;;16.26;64.77
77323;BME280;66384;51.052;9.850;2023-05-10T08:36:15;97982.94;;;16.29;64.45
77323;BME280;66384;51.052;9.850;2023-05-10T08:38:51;97984.08;;;16.36;64.06
77323;BME280;66384;51.052;9.850;2023-05-10T08:41:22;97991.88;;;16.38;63.51
77323;BME280;66384;51.052;9.850;2023-05-10T08:43:53;97993.42;;;16.40;63.58
77323;BME280;66384;51.052;9.850;2023-05-10T08:46:23;97997.91;;;16.44;63.39
77323;BME280;66384;51.052;9.850;2023-05-10T08:48:53;97998.07;;;16.46;63.30
77323;BME280;66384;51.052;9.850;2023-05-10T08:51:25;97997.16;;;16.49;63.37
77323;BME280;66384;51.052;9.850;2023-05-10T08:53:56;98001.13;;;16.54;63.21
77323;BME280;66384;51.052;9.850;2023-05-10T08:56:26;98005.59;;;16.57;63.35
77323;BME280;66384;51.052;9.850;2023-05-10T08:58:55;98007.33;;;16.59;63.36
77323;BME280;66384;51.052;9.850;2023-05-10T09:01:25;98006.32;;;16.54;63.52
77323;BME280;66384;51.052;9.850;2023-05-10T09:03:56;98006.88;;;16.50;63.62
77323;BME280;66384;51.052;9.850;2023-05-10T09:06:25;98014.05;;;16.44;63.77
77323;BME280;66384;51.052;9.850;2023-05-10T09:08:55;98015.11;;;16.40;63.79
77323;BME280;66384;51.052;9.850;2023-05-10T09:11:25;98021.74;;;16.35;63.55
77323;BME280;66384;51.052;9.850;2023-05-10T09:13:56;98029.05;;;16.33;63.26
77323;BME280;66384;51.052;9.850;2023-05-10T09:16:26;98029.61;;;16.29;62.96
77323;BME280;66384;51.052;9.850;2023-05-10T09:18:55;98031.00;;;16.27;62.96
77323;BME280;66384;51.052;9.850;2023-05-10T09:21:24;98035.33;;;16.29;63.16
77323;BME280;66384;51.052;9.850;2023-05-10T09:23:54;98035.47;;;16.33;63.14
77323;BME280;66384;51.052;9.850;2023-05-10T09:26:24;98034.55;;;16.39;63.10
77323;BME280;66384;51.052;9.850;2023-05-10T09:28:56;98037.61;;;16.50;62.68
77323;BME280;66384;51.052;9.850;2023-05-10T09:31:25;98036.14;;;16.59;62.61
77323;BME280;66384;51.052;9.850;2023-05-10T09:34:11;98037.95;;;16.72;62.19
77323;BME280;66384;51.052;9.850;2023-05-10T09:36:54;98039.20;;;16.87;61.54
77323;BME280;66384;51.052;9.850;2023-05-10T09:39:31;98044.61;;;17.03;61.37
77323;BME280;66384;51.052;9.850;2023-05-10T09:41:59;98046.70;;;17.21;61.18
77323;BME280;66384;51.052;9.850;2023-05-10T09:44:31;98042.49;;;17.39;61.03
77323;BME280;66384;51.052;9.850;2023-05-10T09:47:01;98046.62;;;17.57;60.30
77323;BME280;66384;51.052;9.850;2023-05-10T09:49:31;98049.31;;;17.64;59.27
77323;BME280;66384;51.052;9.850;2023-05-10T09:52:05;98046.52;;;17.65;58.63
77323;BME280;66384;51.052;9.850;2023-05-10T09:54:35;98047.56;;;17.65;58.37
77323;BME280;66384;51.052;9.850;2023-05-10T09:57:05;98050.71;;;17.64;58.59
77323;BME280;66384;51.052;9.850;2023-05-10T09:59:34;98050.06;;;17.60;58.53
77323;BME280;66384;51.052;9.850;2023-05-10T10:02:04;98049.62;;;17.54;58.08
77323;BME280;66384;51.052;9.850;2023-05-10T10:04:37;98047.25;;;17.49;57.99
77323;BME280;66384;51.052;9.850;2023-05-10T10:07:08;98045.90;;;17.44;58.02
77323;BME280;66384;51.052;9.850;2023-05-10T10:09:37;98047.52;;;17.40;57.87
77323;BME280;66384;51.052;9.850;2023-05-10T10:12:07;98049.67;;;17.34;57.99
77323;BME280;66384;51.052;9.850;2023-05-10T10:14:37;98054.58;;;17.32;58.25
77323;BME280;66384;51.052;9.850;2023-05-10T10:17:07;98056.28;;;17.35;58.38
77323;BME280;66384;51.052;9.850;2023-05-10T10:19:36;98059.23;;;17.37;58.08
77323;BME280;66384;51.052;9.850;2023-05-10T10:22:06;98060.23;;;17.38;58.54
77323;BME280;66384;51.052;9.850;2023-05-10T10:24:35;98061.26;;;17.39;59.35
77323;BME280;66384;51.052;9.850;2023-05-10T10:27:11;98064.05;;;17.39;59.62
77323;BME280;66384;51.052;9.850;2023-05-10T10:29:52;98058.14;;;17.38;59.20
77323;BME280;66384;51.052;9.850;2023-05-10T10:32:37;98059.52;;;17.39;59.33
77323;BME280;66384;51.052;9.850;2023-05-10T10:35:11;98058.23;;;17.46;59.42
77323;BME280;66384;51.052;9.850;2023-05-10T10:37:45;98059.38;;;17.52;59.47
77323;BME280;66384;51.052;9.850;2023-05-10T10:40:29;98064.20;;;17.56;59.46
77323;BME280;66384;51.052;9.850;2023-05-10T10:43:20;98064.08;;;17.65;59.46
77323;BME280;66384;51.052;9.850;2023-05-10T10:46:10;98061.86;;;17.77;59.47
77323;BME280;66384;51.052;9.850;2023-05-10T10:48:40;98059.58;;;17.93;59.34
77323;BME280;66384;51.052;9.850;2023-05-10T10:51:10;98055.92;;;18.06;58.56
77323;BME280;66384;51.052;9.850;2023-05-10T10:53:39;98054.90;;;18.17;58.08
77323;BME280;66384;51.052;9.850;2023-05-10T10:56:10;98054.20;;;18.29;58.18
77323;BME280;66384;51.052;9.850;2023-05-10T10:58:42;98052.83;;;18.39;57.40
77323;BME280;66384;51.052;9.850;2023-05-10T11:01:19;98056.03;;;18.45;57.27
77323;BME280;66384;51.052;9.850;2023-05-10T11:04:17;98051.81;;;18.48;56.62
77323;BME280;66384;51.052;9.850;2023-05-10T11:06:47;98045.93;;;18.46;56.09
77323;BME280;66384;51.052;9.850;2023-05-10T11:09:16;98042.79;;;18.46;56.01
77323;BME280;66384;51.052;9.850;2023-05-10T11:11:53;98038.78;;;18.47;55.51
77323;BME280;66384;51.052;9.850;2023-05-10T11:14:23;98037.99;;;18.52;55.77
77323;BME280;66384;51.052;9.850;2023-05-10T11:16:53;98038.05;;;18.59;55.45
77323;BME280;66384;51.052;9.850;2023-05-10T11:19:22;98042.47;;;18.65;55.48
77323;BME280;66384;51.052;9.850;2023-05-10T11:22:14;98046.06;;;18.70;54.80
77323;BME280;66384;51.052;9.850;2023-05-10T11:24:57;98047.84;;;18.67;54.55
77323;BME280;66384;51.052;9.850;2023-05-10T11:27:27;98043.60;;;18.60;54.87
77323;BME280;66384;51.052;9.850;2023-05-10T11:29:56;98042.15;;;18.53;54.94
77323;BME280;66384;51.052;9.850;2023-05-10T11:32:25;98045.52;;;18.50;55.06
77323;BME280;66384;51.052;9.850;2023-05-10T11:34:54;98046.88;;;18.52;55.19
77323;BME280;66384;51.052;9.850;2023-05-10T11:37:24;98048.19;;;18.57;55.26
77323;BME280;66384;51.052;9.850;2023-05-10T11:39:56;98051.23;;;18.62;54.88
77323;BME280;66384;51.052;9.850;2023-05-10T11:42:25;98050.19;;;18.63;54.71
77323;BME280;66384;51.052;9.850;2023-05-10T11:44:54;98047.04;;;18.64;54.82
77323;BME280;66384;51.052;9.850;2023-05-10T11:47:23;98049.45;;;18.65;54.78
77323;BME280;66384;51.052;9.850;2023-05-10T11:49:52;98053.08;;;18.67;54.72
77323;BME280;66384;51.052;9.850;2023-05-10T11:52:22;98054.29;;;18.67;54.23
77323;BME280;66384;51.052;9.850;2023-05-10T11:54:54;98057.86;;;18.62;54.19
77323;BME280;66384;51.052;9.850;2023-05-10T11:57:28;98057.39;;;18.59;54.13
77323;BME280;66384;51.052;9.850;2023-05-10T11:59:58;98057.23;;;18.57;54.15
77323;BME280;66384;51.052;9.850;2023-05-10T12:02:28;98058.63;;;18.57;54.29
77323;BME280;66384;51.052;9.850;2023-05-10T12:04:58;98056.86;;;18.59;54.07
77323;BME280;66384;51.052;9.850;2023-05-10T12:07:28;98059.30;;;18.59;54.14
77323;BME280;66384;51.052;9.850;2023-05-10T12:10:09;98058.83;;;18.56;54.17
77323;BME280;66384;51.052;9.850;2023-05-10T12:12:42;98063.09;;;18.51;54.74
77323;BME280;66384;51.052;9.850;2023-05-10T12:15:19;98063.89;;;18.45;55.01
77323;BME280;66384;51.052;9.850;2023-05-10T12:17:48;98072.93;;;18.34;55.10
77323;BME280;66384;51.052;9.850;2023-05-10T12:20:20;98078.48;;;18.22;54.83
77323;BME280;66384;51.052;9.850;2023-05-10T12:22:51;98087.67;;;18.12;55.27
77323;BME280;66384;51.052;9.850;2023-05-10T12:25:22;98098.09;;;18.02;55.81
77323;BME280;66384;51.052;9.850;2023-05-10T12:27:54;98106.11;;;17.88;57.17
77323;BME280;66384;51.052;9.850;2023-05-10T12:30:26;98113.23;;;17.72;58.37
77323;BME280;66384;51.052;9.850;2023-05-10T12:33:00;98115.65;;;17.58;58.91
77323;BME280;66384;51.052;9.850;2023-05-10T12:35:32;98119.82;;;17.41;59.59
77323;BME280;66384;51.052;9.850;2023-05-10T12:38:02;98119.66;;;17.23;60.26
77323;BME280;66384;51.052;9.850;2023-05-10T12:40:49;98122.41;;;17.08;61.01
77323;BME280;66384;51.052;9.850;2023-05-10T12:43:19;98128.06;;;16.97;61.56
77323;BME280;66384;51.052;9.850;2023-05-10T12:45:48;98130.27;;;16.82;61.85
77323;BME280;66384;51.052;9.850;2023-05-10T12:48:17;98131.56;;;16.68;62.12
77323;BME280;66384;51.052;9.850;2023-05-10T12:50:48;98133.01;;;16.60;62.73
77323;BME280;66384;51.052;9.850;2023-05-10T12:53:17;98137.39;;;16.54;63.61
77323;BME280;66384;51.052;9.850;2023-05-10T12:55:47;98143.66;;;16.51;63.94
77323;BME280;66384;51.052;9.850;2023-05-10T12:58:16;98146.98;;;16.47;64.25
77323;BME280;66384;51.052;9.850;2023-05-10T13:00:45;98146.47;;;16.47;64.23
77323;BME280;66384;51.052;9.850;2023-05-10T13:03:14;98142.98;;;16.46;64.46
77323;BME280;66384;51.052;9.850;2023-05-10T13:05:44;98145.59;;;16.47;64.97
77323;BME280;66384;51.052;9.850;2023-05-10T13:08:13;98147.16;;;16.46;63.99
77323;BME280;66384;51.052;9.850;2023-05-10T13:10:43;98143.54;;;16.42;64.15
77323;BME280;66384;51.052;9.850;2023-05-10T13:13:13;98141.98;;;16.42;64.09
77323;BME280;66384;51.052;9.850;2023-05-10T13:15:42;98135.35;;;16.47;64.62
77323;BME280;66384;51.052;9.850;2023-05-10T13:18:11;98136.50;;;16.57;64.91
77323;BME280;66384;51.052;9.850;2023-05-10T13:20:40;98137.12;;;16.67;65.20